sensor_id;sensor_type;location;lat;lon;timestamp;P1;durP1;ratioP1;P2;durP2;ratioP2
13208;SDS011;6669;42.678;23.332;2023-08-20T00:00:19;4.53;;;4.07;;
13208;SDS011;6669;42.678;23.332;2023-08-20T00:02:49;4.22;;;3.67;;
13208;SDS011;6669;42.678;23.332;2023-08-20T00:05:23;4.43;;;3.83;;
13208;SDS011;6669;42.678;23.332;2023-08-20T00:07:52;5.15;;;4.18;;
13208;SDS011;6669;42.678;23.332;2023-08-20T00:10:20;5.72;;;3.80;;
13208;SDS011;6669;42.678;23.332;2023-08-20T00:12:48;4.20;;;3.80;;
13208;SDS011;6669;42.678;23.332;2023-08-20T00:15:17;4.30;;;3.90;;
13208;SDS011;6669;42.678;23.332;2023-08-20T00:17:46;5.78;;;3.65;;
13208;SDS011;6669;42.678;23.332;2023-08-20T00:20:14;5.88;;;4.10;;
13208;SDS011;6669;42.678;23.332;2023-08-20T00:22:43;4.95;;;3.65;;
13208;SDS011;6669;42.678;23.332;2023-08-20T00:25:13;4.18;;;3.78;;
13208;SDS011;6669;42.678;23.332;2023-08-20T00:27:43;5.20;;;3.72;;
13208;SDS011;6669;42.678;23.332;2023-08-20T00:30:11;4.00;;;3.60;;
13208;SDS011;6669;42.678;23.332;2023-08-20T00:32:42;4.00;;;3.60;;
13208;SDS011;6669;42.678;23.332;2023-08-20T00:35:10;4.63;;;4.13;;
13208;SDS011;6669;42.678;23.332;2023-08-20T00:37:38;4.70;;;4.30;;
13208;SDS011;6669;42.678;23.332;2023-08-20T00:40:07;4.15;;;3.75;;
13208;SDS011;6669;42.678;23.332;2023-08-20T00:42:36;4.10;;;3.72;;
13208;SDS011;6669;42.678;23.332;2023-08-20T00:45:05;5.18;;;4.30;;
13208;SDS011;6669;42.678;23.332;2023-08-20T00:47:33;4.65;;;3.67;;
13208;SDS011;6669;42.678;23.332;2023-08-20T00:50:04;4.57;;;4.13;;
13208;SDS011;6669;42.678;23.332;2023-08-20T00:52:34;4.57;;;4.13;;
13208;SDS011;6669;42.678;23.332;2023-08-20T00:55:04;5.07;;;3.67;;
13208;SDS011;6669;42.678;23.332;2023-08-20T00:57:35;5.47;;;4.57;;
13208;SDS011;6669;42.678;23.332;2023-08-20T01:00:04;5.28;;;4.40;;
13208;SDS011;6669;42.678;23.332;2023-08-20T01:02:35;5.40;;;3.97;;
13208;SDS011;6669;42.678;23.332;2023-08-20T01:05:05;4.85;;;4.00;;
13208;SDS011;6669;42.678;23.332;2023-08-20T01:07:39;5.40;;;4.38;;
13208;SDS011;6669;42.678;23.332;2023-08-20T01:10:13;4.50;;;4.00;;
13208;SDS011;6669;42.678;23.332;2023-08-20T01:12:45;4.90;;;4.40;;
13208;SDS011;6669;42.678;23.332;2023-08-20T01:15:14;4.68;;;4.18;;
13208;SDS011;6669;42.678;23.332;2023-08-20T01:17:42;4.60;;;4.20;;
13208;SDS011;6669;42.678;23.332;2023-08-20T01:20:14;6.47;;;4.50;;
13208;SDS011;6669;42.678;23.332;2023-08-20T01:22:56;4.85;;;4.20;;
13208;SDS011;6669;42.678;23.332;2023-08-20T01:25:42;4.60;;;4.20;;
13208;SDS011;6669;42.678;23.332;2023-08-20T01:28:22;4.82;;;4.32;;
13208;SDS011;6669;42.678;23.332;2023-08-20T01:30:53;5.25;;;4.43;;
13208;SDS011;6669;42.678;23.332;2023-08-20T01:33:23;5.15;;;4.43;;
13208;SDS011;6669;42.678;23.332;2023-08-20T01:35:52;6.18;;;4.38;;
13208;SDS011;6669;42.678;23.332;2023-08-20T01:38:20;6.95;;;4.80;;
13208;SDS011;6669;42.678;23.332;2023-08-20T01:40:49;5.20;;;3.92;;
13208;SDS011;6669;42.678;23.332;2023-08-20T01:43:17;4.82;;;4.43;;
13208;SDS011;6669;42.678;23.332;2023-08-20T01:45:46;6.55;;;4.80;;
13208;SDS011;6669;42.678;23.332;2023-08-20T01:48:14;4.70;;;4.30;;
13208;SDS011;6669;42.678;23.332;2023-08-20T01:50:42;5.10;;;4.60;;
13208;SDS011;6669;42.678;23.332;2023-08-20T01:53:10;4.93;;;4.43;;
13208;SDS011;6669;42.678;23.332;2023-08-20T01:55:38;5.70;;;4.72;;
13208;SDS011;6669;42.678;23.332;2023-08-20T01:58:06;5.47;;;4.97;;
13208;SDS011;6669;42.678;23.332;2023-08-20T02:00:34;5.18;;;4.68;;
13208;SDS011;6669;42.678;23.332;2023-08-20T02:03:04;5.20;;;4.70;;
13208;SDS011;6669;42.678;23.332;2023-08-20T02:05:32;6.10;;;5.00;;
13208;SDS011;6669;42.678;23.332;2023-08-20T02:08:00;5.40;;;4.90;;
13208;SDS011;6669;42.678;23.332;2023-08-20T02:10:28;6.07;;;4.95;;
13208;SDS011;6669;42.678;23.332;2023-08-20T02:12:56;6.05;;;4.80;;
13208;SDS011;6669;42.678;23.332;2023-08-20T02:15:24;5.85;;;5.22;;
13208;SDS011;6669;42.678;23.332;2023-08-20T02:17:52;5.75;;;4.63;;
13208;SDS011;6669;42.678;23.332;2023-08-20T02:20:21;5.63;;;4.90;;
13208;SDS011;6669;42.678;23.332;2023-08-20T02:22:51;5.50;;;5.00;;
13208;SDS011;6669;42.678;23.332;2023-08-20T02:25:19;5.15;;;4.65;;
13208;SDS011;6669;42.678;23.332;2023-08-20T02:27:47;5.80;;;5.30;;
13208;SDS011;6669;42.678;23.332;2023-08-20T02:30:15;10.32;;;4.75;;
13208;SDS011;6669;42.678;23.332;2023-08-20T02:32:43;5.30;;;4.45;;
13208;SDS011;6669;42.678;23.332;2023-08-20T02:35:11;5.63;;;5.13;;
13208;SDS011;6669;42.678;23.332;2023-08-20T02:37:43;5.32;;;4.82;;
13208;SDS011;6669;42.678;23.332;2023-08-20T02:40:11;5.22;;;4.72;;
13208;SDS011;6669;42.678;23.332;2023-08-20T02:42:40;5.88;;;4.90;;
13208;SDS011;6669;42.678;23.332;2023-08-20T02:45:08;6.05;;;5.45;;
13208;SDS011;6669;42.678;23.332;2023-08-20T02:47:36;5.85;;;4.82;;
13208;SDS011;6669;42.678;23.332;2023-08-20T02:50:05;6.35;;;5.10;;
13208;SDS011;6669;42.678;23.332;2023-08-20T02:52:33;7.82;;;4.93;;
13208;SDS011;6669;42.678;23.332;2023-08-20T02:55:02;5.80;;;5.30;;
13208;SDS011;6669;42.678;23.332;2023-08-20T02:57:32;6.28;;;5.05;;
13208;SDS011;6669;42.678;23.332;2023-08-20T03:00:00;5.80;;;4.95;;
13208;SDS011;6669;42.678;23.332;2023-08-20T03:02:29;5.47;;;4.68;;
13208;SDS011;6669;42.678;23.332;2023-08-20T03:04:56;5.18;;;4.72;;
13208;SDS011;6669;42.678;23.332;2023-08-20T03:07:24;6.15;;;5.13;;
13208;SDS011;6669;42.678;23.332;2023-08-20T03:09:52;5.75;;;4.88;;
13208;SDS011;6669;42.678;23.332;2023-08-20T03:12:22;7.25;;;5.40;;
13208;SDS011;6669;42.678;23.332;2023-08-20T03:14:50;5.85;;;4.97;;
13208;SDS011;6669;42.678;23.332;2023-08-20T03:17:17;6.70;;;4.90;;
13208;SDS011;6669;42.678;23.332;2023-08-20T03:19:53;6.28;;;5.32;;
13208;SDS011;6669;42.678;23.332;2023-08-20T03:22:22;5.68;;;5.18;;
13208;SDS011;6669;42.678;23.332;2023-08-20T03:24:50;6.47;;;5.30;;
13208;SDS011;6669;42.678;23.332;2023-08-20T03:27:19;6.00;;;5.30;;
13208;SDS011;6669;42.678;23.332;2023-08-20T03:29:49;5.75;;;5.25;;
13208;SDS011;6669;42.678;23.332;2023-08-20T03:32:17;6.35;;;5.15;;
13208;SDS011;6669;42.678;23.332;2023-08-20T03:34:45;5.47;;;4.97;;
13208;SDS011;6669;42.678;23.332;2023-08-20T03:37:13;6.20;;;5.60;;
13208;SDS011;6669;42.678;23.332;2023-08-20T03:39:41;5.72;;;4.75;;
13208;SDS011;6669;42.678;23.332;2023-08-20T03:42:09;5.90;;;5.30;;
13208;SDS011;6669;42.678;23.332;2023-08-20T03:44:37;6.68;;;5.30;;
13208;SDS011;6669;42.678;23.332;2023-08-20T03:47:06;6.32;;;5.72;;
13208;SDS011;6669;42.678;23.332;2023-08-20T03:49:35;7.78;;;5.43;;
13208;SDS011;6669;42.678;23.332;2023-08-20T03:52:03;6.18;;;5.57;;
13208;SDS011;6669;42.678;23.332;2023-08-20T03:54:33;7.68;;;5.75;;
13208;SDS011;6669;42.678;23.332;2023-08-20T03:57:01;7.70;;;6.60;;
13208;SDS011;6669;42.678;23.332;2023-08-20T03:59:29;7.57;;;5.88;;
13208;SDS011;6669;42.678;23.332;2023-08-20T04:01:57;6.07;;;5.47;;
13208;SDS011;6669;42.678;23.332;2023-08-20T04:04:26;6.07;;;5.47;;
13208;SDS011;6669;42.678;23.332;2023-08-20T04:06:54;5.82;;;5.25;;
13208;SDS011;6669;42.678;23.332;2023-08-20T04:09:22;6.38;;;5.70;;
13208;SDS011;6669;42.678;23.332;2023-08-20T04:11:51;6.35;;;5.75;;
13208;SDS011;6669;42.678;23.332;2023-08-20T04:14:19;6.18;;;5.57;;
13208;SDS011;6669;42.678;23.332;2023-08-20T04:16:47;5.95;;;5.35;;
13208;SDS011;6669;42.678;23.332;2023-08-20T04:19:14;5.90;;;5.30;;
13208;SDS011;6669;42.678;23.332;2023-08-20T04:21:44;9.50;;;6.00;;
13208;SDS011;6669;42.678;23.332;2023-08-20T04:24:12;7.43;;;6.38;;
13208;SDS011;6669;42.678;23.332;2023-08-20T04:26:40;6.43;;;5.68;;
13208;SDS011;6669;42.678;23.332;2023-08-20T04:29:10;6.95;;;5.10;;
13208;SDS011;6669;42.678;23.332;2023-08-20T04:31:38;6.00;;;5.05;;
13208;SDS011;6669;42.678;23.332;2023-08-20T04:34:06;5.93;;;5.32;;
13208;SDS011;6669;42.678;23.332;2023-08-20T04:36:34;6.05;;;5.40;;
13208;SDS011;6669;42.678;23.332;2023-08-20T04:39:03;8.00;;;5.47;;
13208;SDS011;6669;42.678;23.332;2023-08-20T04:41:32;8.70;;;5.53;;
13208;SDS011;6669;42.678;23.332;2023-08-20T04:43:59;6.13;;;5.47;;
13208;SDS011;6669;42.678;23.332;2023-08-20T04:46:27;6.65;;;5.50;;
13208;SDS011;6669;42.678;23.332;2023-08-20T04:48:56;6.05;;;5.45;;
13208;SDS011;6669;42.678;23.332;2023-08-20T04:51:23;6.00;;;5.40;;
13208;SDS011;6669;42.678;23.332;2023-08-20T04:53:51;7.07;;;5.53;;
13208;SDS011;6669;42.678;23.332;2023-08-20T04:56:21;5.95;;;5.13;;
13208;SDS011;6669;42.678;23.332;2023-08-20T04:58:49;6.13;;;5.45;;
13208;SDS011;6669;42.678;23.332;2023-08-20T05:01:17;5.97;;;5.43;;
13208;SDS011;6669;42.678;23.332;2023-08-20T05:03:45;5.68;;;5.07;;
13208;SDS011;6669;42.678;23.332;2023-08-20T05:06:13;5.72;;;5.20;;
13208;SDS011;6669;42.678;23.332;2023-08-20T05:08:41;6.88;;;5.93;;
13208;SDS011;6669;42.678;23.332;2023-08-20T05:11:10;6.85;;;5.40;;
13208;SDS011;6669;42.678;23.332;2023-08-20T05:13:39;6.30;;;5.68;;
13208;SDS011;6669;42.678;23.332;2023-08-20T05:16:07;6.25;;;5.63;;
13208;SDS011;6669;42.678;23.332;2023-08-20T05:18:35;5.70;;;5.20;;
13208;SDS011;6669;42.678;23.332;2023-08-20T05:21:03;5.78;;;5.18;;
13208;SDS011;6669;42.678;23.332;2023-08-20T05:23:31;7.10;;;4.93;;
13208;SDS011;6669;42.678;23.332;2023-08-20T05:25:59;6.63;;;4.93;;
13208;SDS011;6669;42.678;23.332;2023-08-20T05:28:27;5.20;;;4.78;;
13208;SDS011;6669;42.678;23.332;2023-08-20T05:30:56;7.38;;;5.38;;
13208;SDS011;6669;42.678;23.332;2023-08-20T05:33:25;5.78;;;5.22;;
13208;SDS011;6669;42.678;23.332;2023-08-20T05:35:53;5.60;;;5.00;;
13208;SDS011;6669;42.678;23.332;2023-08-20T05:38:21;7.20;;;5.45;;
13208;SDS011;6669;42.678;23.332;2023-08-20T05:40:49;6.00;;;5.40;;
13208;SDS011;6669;42.678;23.332;2023-08-20T05:43:17;6.85;;;4.63;;
13208;SDS011;6669;42.678;23.332;2023-08-20T05:45:45;6.05;;;4.70;;
13208;SDS011;6669;42.678;23.332;2023-08-20T05:48:14;7.07;;;5.40;;
13208;SDS011;6669;42.678;23.332;2023-08-20T05:50:42;5.45;;;4.78;;
13208;SDS011;6669;42.678;23.332;2023-08-20T05:53:11;8.45;;;4.90;;
13208;SDS011;6669;42.678;23.332;2023-08-20T05:55:39;5.50;;;5.00;;
13208;SDS011;6669;42.678;23.332;2023-08-20T05:58:07;5.85;;;4.93;;
13208;SDS011;6669;42.678;23.332;2023-08-20T06:00:35;5.97;;;5.32;;
13208;SDS011;6669;42.678;23.332;2023-08-20T06:03:03;5.55;;;4.97;;
13208;SDS011;6669;42.678;23.332;2023-08-20T06:05:35;5.57;;;5.07;;
13208;SDS011;6669;42.678;23.332;2023-08-20T06:08:03;6.78;;;5.35;;
13208;SDS011;6669;42.678;23.332;2023-08-20T06:10:31;6.78;;;4.97;;
13208;SDS011;6669;42.678;23.332;2023-08-20T06:12:59;5.28;;;4.78;;
13208;SDS011;6669;42.678;23.332;2023-08-20T06:15:27;5.60;;;5.10;;
13208;SDS011;6669;42.678;23.332;2023-08-20T06:17:55;6.65;;;5.07;;
13208;SDS011;6669;42.678;23.332;2023-08-20T06:20:23;5.60;;;5.10;;
13208;SDS011;6669;42.678;23.332;2023-08-20T06:22:53;6.22;;;5.50;;
13208;SDS011;6669;42.678;23.332;2023-08-20T06:25:20;6.22;;;5.30;;
13208;SDS011;6669;42.678;23.332;2023-08-20T06:27:48;8.98;;;5.47;;
13208;SDS011;6669;42.678;23.332;2023-08-20T06:30:16;6.18;;;5.18;;
13208;SDS011;6669;42.678;23.332;2023-08-20T06:32:44;8.13;;;5.40;;
13208;SDS011;6669;42.678;23.332;2023-08-20T06:35:12;7.93;;;5.50;;
13208;SDS011;6669;42.678;23.332;2023-08-20T06:37:40;6.47;;;5.50;;
13208;SDS011;6669;42.678;23.332;2023-08-20T06:40:10;6.35;;;5.75;;
13208;SDS011;6669;42.678;23.332;2023-08-20T06:42:40;7.70;;;5.40;;
13208;SDS011;6669;42.678;23.332;2023-08-20T06:45:08;5.95;;;5.03;;
13208;SDS011;6669;42.678;23.332;2023-08-20T06:47:36;7.60;;;5.20;;
13208;SDS011;6669;42.678;23.332;2023-08-20T06:50:05;9.40;;;5.47;;
13208;SDS011;6669;42.678;23.332;2023-08-20T06:52:33;7.53;;;5.03;;
13208;SDS011;6669;42.678;23.332;2023-08-20T06:55:01;6.15;;;4.88;;
13208;SDS011;6669;42.678;23.332;2023-08-20T06:57:31;6.43;;;5.82;;
13208;SDS011;6669;42.678;23.332;2023-08-20T07:00:00;6.53;;;5.82;;
13208;SDS011;6669;42.678;23.332;2023-08-20T07:02:30;6.43;;;4.57;;
13208;SDS011;6669;42.678;23.332;2023-08-20T07:04:58;4.90;;;4.40;;
13208;SDS011;6669;42.678;23.332;2023-08-20T07:07:26;4.70;;;4.18;;
13208;SDS011;6669;42.678;23.332;2023-08-20T07:09:53;4.63;;;4.22;;
13208;SDS011;6669;42.678;23.332;2023-08-20T07:12:21;7.78;;;4.72;;
13208;SDS011;6669;42.678;23.332;2023-08-20T07:14:51;4.80;;;4.22;;
13208;SDS011;6669;42.678;23.332;2023-08-20T07:17:19;4.93;;;4.18;;
13208;SDS011;6669;42.678;23.332;2023-08-20T07:19:47;5.45;;;4.43;;
13208;SDS011;6669;42.678;23.332;2023-08-20T07:22:15;5.20;;;4.35;;
13208;SDS011;6669;42.678;23.332;2023-08-20T07:24:43;4.25;;;3.85;;
13208;SDS011;6669;42.678;23.332;2023-08-20T07:27:11;4.97;;;4.38;;
13208;SDS011;6669;42.678;23.332;2023-08-20T07:29:39;5.03;;;4.50;;
13208;SDS011;6669;42.678;23.332;2023-08-20T07:32:10;6.45;;;4.18;;
13208;SDS011;6669;42.678;23.332;2023-08-20T07:34:38;4.25;;;3.85;;
13208;SDS011;6669;42.678;23.332;2023-08-20T07:37:06;4.32;;;3.92;;
13208;SDS011;6669;42.678;23.332;2023-08-20T07:39:34;4.43;;;4.03;;
13208;SDS011;6669;42.678;23.332;2023-08-20T07:42:02;6.45;;;3.83;;
13208;SDS011;6669;42.678;23.332;2023-08-20T07:44:31;4.18;;;3.78;;
13208;SDS011;6669;42.678;23.332;2023-08-20T07:46:59;3.63;;;3.33;;
13208;SDS011;6669;42.678;23.332;2023-08-20T07:49:28;3.90;;;3.60;;
13208;SDS011;6669;42.678;23.332;2023-08-20T07:51:56;4.80;;;3.75;;
13208;SDS011;6669;42.678;23.332;2023-08-20T07:54:24;3.88;;;3.58;;
13208;SDS011;6669;42.678;23.332;2023-08-20T07:56:53;4.90;;;3.60;;
13208;SDS011;6669;42.678;23.332;2023-08-20T07:59:21;3.67;;;3.38;;
13208;SDS011;6669;42.678;23.332;2023-08-20T08:01:49;5.30;;;4.18;;
13208;SDS011;6669;42.678;23.332;2023-08-20T08:04:17;4.47;;;4.05;;
13208;SDS011;6669;42.678;23.332;2023-08-20T08:06:47;4.68;;;3.88;;
13208;SDS011;6669;42.678;23.332;2023-08-20T08:09:18;5.20;;;3.53;;
13208;SDS011;6669;42.678;23.332;2023-08-20T08:11:47;4.05;;;3.63;;
13208;SDS011;6669;42.678;23.332;2023-08-20T08:14:16;4.40;;;3.47;;
13208;SDS011;6669;42.678;23.332;2023-08-20T08:16:44;3.72;;;3.42;;
13208;SDS011;6669;42.678;23.332;2023-08-20T08:19:12;4.45;;;3.50;;
13208;SDS011;6669;42.678;23.332;2023-08-20T08:21:41;4.03;;;3.33;;
13208;SDS011;6669;42.678;23.332;2023-08-20T08:24:10;3.22;;;2.92;;
13208;SDS011;6669;42.678;23.332;2023-08-20T08:26:39;5.60;;;3.50;;
13208;SDS011;6669;42.678;23.332;2023-08-20T08:29:08;3.63;;;3.33;;
13208;SDS011;6669;42.678;23.332;2023-08-20T08:31:36;3.40;;;3.10;;
13208;SDS011;6669;42.678;23.332;2023-08-20T08:34:04;3.47;;;3.20;;
13208;SDS011;6669;42.678;23.332;2023-08-20T08:36:32;3.95;;;3.65;;
13208;SDS011;6669;42.678;23.332;2023-08-20T08:39:00;3.30;;;3.00;;
13208;SDS011;6669;42.678;23.332;2023-08-20T08:41:30;3.58;;;3.28;;
13208;SDS011;6669;42.678;23.332;2023-08-20T08:44:02;3.38;;;3.08;;
13208;SDS011;6669;42.678;23.332;2023-08-20T08:46:30;3.47;;;2.72;;
13208;SDS011;6669;42.678;23.332;2023-08-20T08:48:59;3.55;;;3.20;;
13208;SDS011;6669;42.678;23.332;2023-08-20T08:51:27;5.28;;;2.90;;
13208;SDS011;6669;42.678;23.332;2023-08-20T08:53:57;5.43;;;4.22;;
13208;SDS011;6669;42.678;23.332;2023-08-20T08:56:26;4.35;;;3.20;;
13208;SDS011;6669;42.678;23.332;2023-08-20T08:58:55;3.95;;;3.08;;
13208;SDS011;6669;42.678;23.332;2023-08-20T09:01:23;3.03;;;2.63;;
13208;SDS011;6669;42.678;23.332;2023-08-20T09:03:51;4.55;;;2.75;;
13208;SDS011;6669;42.678;23.332;2023-08-20T09:06:19;3.25;;;2.50;;
13208;SDS011;6669;42.678;23.332;2023-08-20T09:08:47;4.10;;;2.90;;
13208;SDS011;6669;42.678;23.332;2023-08-20T09:11:15;4.50;;;2.70;;
13208;SDS011;6669;42.678;23.332;2023-08-20T09:13:43;2.63;;;2.42;;
13208;SDS011;6669;42.678;23.332;2023-08-20T09:16:13;4.45;;;2.70;;
13208;SDS011;6669;42.678;23.332;2023-08-20T09:18:41;3.10;;;2.72;;
13208;SDS011;6669;42.678;23.332;2023-08-20T09:21:12;2.92;;;2.63;;
13208;SDS011;6669;42.678;23.332;2023-08-20T09:23:45;3.90;;;3.10;;
13208;SDS011;6669;42.678;23.332;2023-08-20T09:26:13;3.25;;;2.95;;
13208;SDS011;6669;42.678;23.332;2023-08-20T09:28:42;2.50;;;2.20;;
13208;SDS011;6669;42.678;23.332;2023-08-20T09:31:13;2.72;;;2.53;;
13208;SDS011;6669;42.678;23.332;2023-08-20T09:33:48;4.38;;;3.83;;
13208;SDS011;6669;42.678;23.332;2023-08-20T09:36:17;3.25;;;2.95;;
13208;SDS011;6669;42.678;23.332;2023-08-20T09:38:45;4.35;;;3.10;;
13208;SDS011;6669;42.678;23.332;2023-08-20T09:41:16;2.83;;;2.63;;
13208;SDS011;6669;42.678;23.332;2023-08-20T09:43:45;2.60;;;2.40;;
13208;SDS011;6669;42.678;23.332;2023-08-20T09:46:17;2.80;;;2.60;;
13208;SDS011;6669;42.678;23.332;2023-08-20T09:48:47;2.75;;;2.55;;
13208;SDS011;6669;42.678;23.332;2023-08-20T09:51:19;3.05;;;2.80;;
13208;SDS011;6669;42.678;23.332;2023-08-20T09:53:53;3.45;;;2.50;;
13208;SDS011;6669;42.678;23.332;2023-08-20T09:56:28;3.10;;;2.38;;
13208;SDS011;6669;42.678;23.332;2023-08-20T09:58:58;3.30;;;2.35;;
13208;SDS011;6669;42.678;23.332;2023-08-20T10:01:29;2.60;;;2.40;;
13208;SDS011;6669;42.678;23.332;2023-08-20T10:03:58;3.22;;;2.10;;
13208;SDS011;6669;42.678;23.332;2023-08-20T10:06:27;5.07;;;4.40;;
13208;SDS011;6669;42.678;23.332;2023-08-20T10:08:56;2.53;;;2.33;;
13208;SDS011;6669;42.678;23.332;2023-08-20T10:11:26;2.50;;;2.30;;
13208;SDS011;6669;42.678;23.332;2023-08-20T10:13:54;2.60;;;2.40;;
13208;SDS011;6669;42.678;23.332;2023-08-20T10:16:22;2.50;;;2.30;;
13208;SDS011;6669;42.678;23.332;2023-08-20T10:18:52;2.40;;;2.20;;
13208;SDS011;6669;42.678;23.332;2023-08-20T10:21:23;2.78;;;2.13;;
13208;SDS011;6669;42.678;23.332;2023-08-20T10:23:51;2.38;;;2.10;;
13208;SDS011;6669;42.678;23.332;2023-08-20T10:26:19;2.65;;;2.45;;
13208;SDS011;6669;42.678;23.332;2023-08-20T10:28:48;4.18;;;3.50;;
13208;SDS011;6669;42.678;23.332;2023-08-20T10:31:16;2.25;;;1.90;;
13208;SDS011;6669;42.678;23.332;2023-08-20T10:33:53;2.67;;;2.40;;
13208;SDS011;6669;42.678;23.332;2023-08-20T10:36:24;2.97;;;2.40;;
13208;SDS011;6669;42.678;23.332;2023-08-20T10:38:54;8.57;;;7.78;;
13208;SDS011;6669;42.678;23.332;2023-08-20T10:41:26;2.55;;;2.35;;
13208;SDS011;6669;42.678;23.332;2023-08-20T10:43:57;4.10;;;2.25;;
13208;SDS011;6669;42.678;23.332;2023-08-20T10:46:26;1.95;;;1.85;;
13208;SDS011;6669;42.678;23.332;2023-08-20T10:48:58;3.97;;;2.65;;
13208;SDS011;6669;42.678;23.332;2023-08-20T10:51:30;3.13;;;2.20;;
13208;SDS011;6669;42.678;23.332;2023-08-20T10:54:03;2.00;;;1.85;;
13208;SDS011;6669;42.678;23.332;2023-08-20T10:56:43;2.10;;;1.90;;
13208;SDS011;6669;42.678;23.332;2023-08-20T10:59:16;2.78;;;2.10;;
13208;SDS011;6669;42.678;23.332;2023-08-20T11:01:45;2.25;;;2.05;;
13208;SDS011;6669;42.678;23.332;2023-08-20T11:04:16;3.20;;;2.03;;
13208;SDS011;6669;42.678;23.332;2023-08-20T11:06:46;2.33;;;2.13;;
13208;SDS011;6669;42.678;23.332;2023-08-20T11:09:17;2.00;;;1.90;;
13208;SDS011;6669;42.678;23.332;2023-08-20T11:11:46;2.30;;;2.10;;
13208;SDS011;6669;42.678;23.332;2023-08-20T11:14:14;2.33;;;2.20;;
13208;SDS011;6669;42.678;23.332;2023-08-20T11:16:43;2.15;;;1.95;;
13208;SDS011;6669;42.678;23.332;2023-08-20T11:19:12;2.70;;;2.50;;
13208;SDS011;6669;42.678;23.332;2023-08-20T11:21:42;3.10;;;2.53;;
13208;SDS011;6669;42.678;23.332;2023-08-20T11:24:10;2.42;;;1.98;;
13208;SDS011;6669;42.678;23.332;2023-08-20T11:26:39;2.17;;;1.95;;
13208;SDS011;6669;42.678;23.332;2023-08-20T11:29:08;1.98;;;1.80;;
13208;SDS011;6669;42.678;23.332;2023-08-20T11:31:37;1.83;;;1.60;;
13208;SDS011;6669;42.678;23.332;2023-08-20T11:34:06;1.92;;;1.80;;
13208;SDS011;6669;42.678;23.332;2023-08-20T11:36:34;2.10;;;1.90;;
13208;SDS011;6669;42.678;23.332;2023-08-20T11:39:04;2.25;;;2.08;;
13208;SDS011;6669;42.678;23.332;2023-08-20T11:41:35;1.95;;;1.85;;
13208;SDS011;6669;42.678;23.332;2023-08-20T11:44:03;2.25;;;2.08;;
13208;SDS011;6669;42.678;23.332;2023-08-20T11:46:32;5.22;;;4.30;;
13208;SDS011;6669;42.678;23.332;2023-08-20T11:49:01;2.30;;;2.00;;
13208;SDS011;6669;42.678;23.332;2023-08-20T11:51:34;2.35;;;2.15;;
13208;SDS011;6669;42.678;23.332;2023-08-20T11:54:06;2.58;;;2.38;;
13208;SDS011;6669;42.678;23.332;2023-08-20T11:56:35;2.25;;;1.90;;
13208;SDS011;6669;42.678;23.332;2023-08-20T11:59:05;2.08;;;1.98;;
13208;SDS011;6669;42.678;23.332;2023-08-20T12:01:37;4.43;;;2.55;;
13208;SDS011;6669;42.678;23.332;2023-08-20T12:04:06;2.28;;;2.08;;
13208;SDS011;6669;42.678;23.332;2023-08-20T12:06:36;1.95;;;1.85;;
13208;SDS011;6669;42.678;23.332;2023-08-20T12:09:19;2.15;;;2.05;;
13208;SDS011;6669;42.678;23.332;2023-08-20T12:11:48;2.85;;;2.28;;
13208;SDS011;6669;42.678;23.332;2023-08-20T12:14:17;3.83;;;3.15;;
13208;SDS011;6669;42.678;23.332;2023-08-20T12:16:46;2.33;;;2.13;;
13208;SDS011;6669;42.678;23.332;2023-08-20T12:19:14;2.53;;;2.25;;
13208;SDS011;6669;42.678;23.332;2023-08-20T12:21:42;2.30;;;1.80;;
13208;SDS011;6669;42.678;23.332;2023-08-20T12:24:10;2.72;;;1.92;;
13208;SDS011;6669;42.678;23.332;2023-08-20T12:26:40;2.00;;;1.90;;
13208;SDS011;6669;42.678;23.332;2023-08-20T12:29:08;2.85;;;2.40;;
13208;SDS011;6669;42.678;23.332;2023-08-20T12:31:36;2.17;;;1.85;;
13208;SDS011;6669;42.678;23.332;2023-08-20T12:34:04;5.75;;;5.25;;
13208;SDS011;6669;42.678;23.332;2023-08-20T12:36:32;7.55;;;6.88;;
13208;SDS011;6669;42.678;23.332;2023-08-20T12:39:01;2.08;;;1.90;;
13208;SDS011;6669;42.678;23.332;2023-08-20T12:41:30;2.28;;;1.80;;
13208;SDS011;6669;42.678;23.332;2023-08-20T12:43:59;2.22;;;2.03;;
13208;SDS011;6669;42.678;23.332;2023-08-20T12:46:27;3.00;;;2.00;;
13208;SDS011;6669;42.678;23.332;2023-08-20T12:48:55;4.75;;;2.20;;
13208;SDS011;6669;42.678;23.332;2023-08-20T12:51:23;2.25;;;2.05;;
13208;SDS011;6669;42.678;23.332;2023-08-20T12:53:51;2.38;;;1.98;;
13208;SDS011;6669;42.678;23.332;2023-08-20T12:56:19;2.15;;;1.95;;
13208;SDS011;6669;42.678;23.332;2023-08-20T12:58:47;2.28;;;1.88;;
13208;SDS011;6669;42.678;23.332;2023-08-20T13:01:16;2.10;;;2.00;;
13208;SDS011;6669;42.678;23.332;2023-08-20T13:03:46;2.22;;;2.03;;
13208;SDS011;6669;42.678;23.332;2023-08-20T13:06:15;3.65;;;2.13;;
13208;SDS011;6669;42.678;23.332;2023-08-20T13:08:43;2.90;;;1.98;;
13208;SDS011;6669;42.678;23.332;2023-08-20T13:11:12;2.15;;;1.95;;
13208;SDS011;6669;42.678;23.332;2023-08-20T13:13:41;2.78;;;1.80;;
13208;SDS011;6669;42.678;23.332;2023-08-20T13:16:10;2.03;;;1.92;;
13208;SDS011;6669;42.678;23.332;2023-08-20T13:18:40;2.63;;;1.90;;
13208;SDS011;6669;42.678;23.332;2023-08-20T13:21:08;1.80;;;1.70;;
13208;SDS011;6669;42.678;23.332;2023-08-20T13:23:36;1.88;;;1.77;;
13208;SDS011;6669;42.678;23.332;2023-08-20T13:26:04;2.10;;;1.90;;
13208;SDS011;6669;42.678;23.332;2023-08-20T13:28:35;4.03;;;1.88;;
13208;SDS011;6669;42.678;23.332;2023-08-20T13:31:03;1.90;;;1.80;;
13208;SDS011;6669;42.678;23.332;2023-08-20T13:33:31;2.70;;;2.15;;
13208;SDS011;6669;42.678;23.332;2023-08-20T13:36:00;2.40;;;2.20;;
13208;SDS011;6669;42.678;23.332;2023-08-20T13:38:28;2.20;;;2.00;;
13208;SDS011;6669;42.678;23.332;2023-08-20T13:40:56;3.42;;;2.60;;
13208;SDS011;6669;42.678;23.332;2023-08-20T13:43:24;1.95;;;1.85;;
13208;SDS011;6669;42.678;23.332;2023-08-20T13:45:52;1.92;;;1.83;;
13208;SDS011;6669;42.678;23.332;2023-08-20T13:48:20;2.50;;;2.30;;
13208;SDS011;6669;42.678;23.332;2023-08-20T13:50:48;2.97;;;2.20;;
13208;SDS011;6669;42.678;23.332;2023-08-20T13:53:18;4.90;;;1.80;;
13208;SDS011;6669;42.678;23.332;2023-08-20T13:55:46;2.00;;;1.90;;
13208;SDS011;6669;42.678;23.332;2023-08-20T13:58:14;2.58;;;2.28;;
13208;SDS011;6669;42.678;23.332;2023-08-20T14:00:42;1.98;;;1.85;;
13208;SDS011;6669;42.678;23.332;2023-08-20T14:03:13;1.90;;;1.80;;
13208;SDS011;6669;42.678;23.332;2023-08-20T14:05:41;3.92;;;2.53;;
13208;SDS011;6669;42.678;23.332;2023-08-20T14:08:11;2.28;;;1.98;;
13208;SDS011;6669;42.678;23.332;2023-08-20T14:10:40;2.17;;;1.98;;
13208;SDS011;6669;42.678;23.332;2023-08-20T14:13:08;2.08;;;1.98;;
13208;SDS011;6669;42.678;23.332;2023-08-20T14:15:36;2.55;;;2.10;;
13208;SDS011;6669;42.678;23.332;2023-08-20T14:18:04;1.92;;;1.70;;
13208;SDS011;6669;42.678;23.332;2023-08-20T14:20:35;1.52;;;1.42;;
13208;SDS011;6669;42.678;23.332;2023-08-20T14:23:03;1.48;;;1.38;;
13208;SDS011;6669;42.678;23.332;2023-08-20T14:25:31;2.33;;;1.75;;
13208;SDS011;6669;42.678;23.332;2023-08-20T14:28:01;2.08;;;1.88;;
13208;SDS011;6669;42.678;23.332;2023-08-20T14:30:29;2.13;;;2.03;;
13208;SDS011;6669;42.678;23.332;2023-08-20T14:32:57;2.15;;;2.00;;
13208;SDS011;6669;42.678;23.332;2023-08-20T14:35:25;1.75;;;1.65;;
13208;SDS011;6669;42.678;23.332;2023-08-20T14:37:53;2.47;;;2.15;;
13208;SDS011;6669;42.678;23.332;2023-08-20T14:40:21;1.98;;;1.83;;
13208;SDS011;6669;42.678;23.332;2023-08-20T14:42:49;2.42;;;2.08;;
13208;SDS011;6669;42.678;23.332;2023-08-20T14:45:20;1.92;;;1.83;;
13208;SDS011;6669;42.678;23.332;2023-08-20T14:47:48;2.03;;;1.83;;
13208;SDS011;6669;42.678;23.332;2023-08-20T14:50:16;1.85;;;1.75;;
13208;SDS011;6669;42.678;23.332;2023-08-20T14:52:44;2.20;;;2.00;;
13208;SDS011;6669;42.678;23.332;2023-08-20T14:55:14;1.95;;;1.77;;
13208;SDS011;6669;42.678;23.332;2023-08-20T14:57:42;2.20;;;2.00;;